sensor_id;sensor_type;location;lat;lon;timestamp;temperature;humidity
19180;DHT22;9722;48.754;8.868;2024-02-21T00:00:43;4.60;99.90
19180;DHT22;9722;48.754;8.868;2024-02-21T00:04:04;4.70;99.90
19180;DHT22;9722;48.754;8.868;2024-02-21T00:07:24;4.70;99.90
19180;DHT22;9722;48.754;8.868;2024-02-21T00:10:45;4.70;99.90
19180;DHT22;9722;48.754;8.868;2024-02-21T00:14:05;4.80;99.90
19180;DHT22;9722;48.754;8.868;2024-02-21T00:17:26;4.90;99.90
19180;DHT22;9722;48.754;8.868;2024-02-21T00:20:46;4.90;99.90
19180;DHT22;9722;48.754;8.868;2024-02-21T00:24:07;5.00;99.90
19180;DHT22;9722;48.754;8.868;2024-02-21T00:27:28;5.00;99.90
19180;DHT22;9722;48.754;8.868;2024-02-21T00:30:48;5.00;99.90
19180;DHT22;9722;48.754;8.868;2024-02-21T00:34:10;5.10;99.90
19180;DHT22;9722;48.754;8.868;2024-02-21T00:37:32;5.20;99.90
19180;DHT22;9722;48.754;8.868;2024-02-21T00:40:53;5.30;99.90
19180;DHT22;9722;48.754;8.868;2024-02-21T00:44:13;5.30;99.90
19180;DHT22;9722;48.754;8.868;2024-02-21T00:47:34;5.40;99.90
19180;DHT22;9722;48.754;8.868;2024-02-21T00:50:54;5.40;99.90
19180;DHT22;9722;48.754;8.868;2024-02-21T00:54:15;5.30;99.90
19180;DHT22;9722;48.754;8.868;2024-02-21T00:57:36;5.30;99.90
19180;DHT22;9722;48.754;8.868;2024-02-21T01:00:56;5.30;99.90
19180;DHT22;9722;48.754;8.868;2024-02-21T01:04:17;5.30;99.90
19180;DHT22;9722;48.754;8.868;2024-02-21T01:07:37;5.30;99.90
19180;DHT22;9722;48.754;8.868;2024-02-21T01:10:58;5.30;99.90
19180;DHT22;9722;48.754;8.868;2024-02-21T01:14:18;5.30;99.90
19180;DHT22;9722;48.754;8.868;2024-02-21T01:17:39;5.40;99.90
19180;DHT22;9722;48.754;8.868;2024-02-21T01:21:00;5.40;99.90
19180;DHT22;9722;48.754;8.868;2024-02-21T01:24:21;5.40;99.90
19180;DHT22;9722;48.754;8.868;2024-02-21T01:27:42;5.50;99.90
19180;DHT22;9722;48.754;8.868;2024-02-21T01:31:02;5.60;99.90
19180;DHT22;9722;48.754;8.868;2024-02-21T01:34:24;5.70;99.90
19180;DHT22;9722;48.754;8.868;2024-02-21T01:37:44;5.70;99.90
19180;DHT22;9722;48.754;8.868;2024-02-21T01:41:05;5.80;99.90
19180;DHT22;9722;48.754;8.868;2024-02-21T01:44:25;5.90;99.90
19180;DHT22;9722;48.754;8.868;2024-02-21T01:47:46;6.00;99.90
19180;DHT22;9722;48.754;8.868;2024-02-21T01:51:07;6.00;99.90
19180;DHT22;9722;48.754;8.868;2024-02-21T01:54:27;6.10;99.90
19180;DHT22;9722;48.754;8.868;2024-02-21T01:57:51;6.10;99.90
19180;DHT22;9722;48.754;8.868;2024-02-21T02:01:12;6.20;99.90
19180;DHT22;9722;48.754;8.868;2024-02-21T02:04:33;6.20;99.90
19180;DHT22;9722;48.754;8.868;2024-02-21T02:07:54;6.30;99.90
19180;DHT22;9722;48.754;8.868;2024-02-21T02:11:15;6.30;99.90
19180;DHT22;9722;48.754;8.868;2024-02-21T02:14:36;6.40;99.90
19180;DHT22;9722;48.754;8.868;2024-02-21T02:17:56;6.50;99.90
19180;DHT22;9722;48.754;8.868;2024-02-21T02:21:30;6.50;99.90
19180;DHT22;9722;48.754;8.868;2024-02-21T02:24:52;6.50;99.90
19180;DHT22;9722;48.754;8.868;2024-02-21T02:28:13;6.50;99.90
19180;DHT22;9722;48.754;8.868;2024-02-21T02:31:33;6.50;99.90
19180;DHT22;9722;48.754;8.868;2024-02-21T02:34:54;6.50;99.90
19180;DHT22;9722;48.754;8.868;2024-02-21T02:38:16;6.50;99.90
19180;DHT22;9722;48.754;8.868;2024-02-21T02:41:36;6.40;99.90
19180;DHT22;9722;48.754;8.868;2024-02-21T02:44:57;6.40;99.90
19180;DHT22;9722;48.754;8.868;2024-02-21T02:48:17;6.40;99.90
19180;DHT22;9722;48.754;8.868;2024-02-21T02:51:43;6.40;99.90
19180;DHT22;9722;48.754;8.868;2024-02-21T02:55:05;6.30;99.90
19180;DHT22;9722;48.754;8.868;2024-02-21T02:58:25;6.30;99.90
19180;DHT22;9722;48.754;8.868;2024-02-21T03:01:46;6.30;99.90
19180;DHT22;9722;48.754;8.868;2024-02-21T03:05:21;6.20;99.90
19180;DHT22;9722;48.754;8.868;2024-02-21T03:08:41;6.20;99.90
19180;DHT22;9722;48.754;8.868;2024-02-21T03:12:03;6.20;99.90
19180;DHT22;9722;48.754;8.868;2024-02-21T03:15:24;6.10;99.90
19180;DHT22;9722;48.754;8.868;2024-02-21T03:18:44;6.10;99.90
19180;DHT22;9722;48.754;8.868;2024-02-21T03:22:05;6.10;99.90
19180;DHT22;9722;48.754;8.868;2024-02-21T03:25:26;6.10;99.90
19180;DHT22;9722;48.754;8.868;2024-02-21T03:28:46;6.10;99.90
19180;DHT22;9722;48.754;8.868;2024-02-21T03:32:07;6.10;99.90
19180;DHT22;9722;48.754;8.868;2024-02-21T03:35:27;6.10;99.90
19180;DHT22;9722;48.754;8.868;2024-02-21T03:38:48;6.10;99.90
19180;DHT22;9722;48.754;8.868;2024-02-21T03:42:08;6.20;99.90
19180;DHT22;9722;48.754;8.868;2024-02-21T03:45:29;6.10;99.90
19180;DHT22;9722;48.754;8.868;2024-02-21T03:48:49;6.10;99.90
19180;DHT22;9722;48.754;8.868;2024-02-21T03:52:10;6.10;99.90
19180;DHT22;9722;48.754;8.868;2024-02-21T03:55:31;6.10;99.90
19180;DHT22;9722;48.754;8.868;2024-02-21T03:58:51;6.10;99.90
19180;DHT22;9722;48.754;8.868;2024-02-21T04:02:12;6.00;99.90
19180;DHT22;9722;48.754;8.868;2024-02-21T04:05:32;6.00;99.90
19180;DHT22;9722;48.754;8.868;2024-02-21T04:08:53;5.90;99.90
19180;DHT22;9722;48.754;8.868;2024-02-21T04:12:14;5.80;99.90
19180;DHT22;9722;48.754;8.868;2024-02-21T04:15:34;5.90;99.90
19180;DHT22;9722;48.754;8.868;2024-02-21T04:18:55;5.80;99.90
19180;DHT22;9722;48.754;8.868;2024-02-21T04:22:15;5.80;99.90
19180;DHT22;9722;48.754;8.868;2024-02-21T04:25:36;5.80;99.90
19180;DHT22;9722;48.754;8.868;2024-02-21T04:28:57;5.80;99.90
19180;DHT22;9722;48.754;8.868;2024-02-21T04:32:17;5.80;99.90
19180;DHT22;9722;48.754;8.868;2024-02-21T04:35:38;5.70;99.90
19180;DHT22;9722;48.754;8.868;2024-02-21T04:38:59;5.70;99.90
19180;DHT22;9722;48.754;8.868;2024-02-21T04:42:20;5.70;99.90
19180;DHT22;9722;48.754;8.868;2024-02-21T04:45:40;5.70;99.90
19180;DHT22;9722;48.754;8.868;2024-02-21T04:49:01;5.60;99.90
19180;DHT22;9722;48.754;8.868;2024-02-21T04:52:21;5.60;99.90
19180;DHT22;9722;48.754;8.868;2024-02-21T04:55:42;5.60;99.90
19180;DHT22;9722;48.754;8.868;2024-02-21T04:59:03;5.50;99.90
19180;DHT22;9722;48.754;8.868;2024-02-21T05:02:24;5.40;99.90
19180;DHT22;9722;48.754;8.868;2024-02-21T05:05:44;5.30;99.90
19180;DHT22;9722;48.754;8.868;2024-02-21T05:09:06;5.20;99.90
19180;DHT22;9722;48.754;8.868;2024-02-21T05:12:27;5.10;99.90
19180;DHT22;9722;48.754;8.868;2024-02-21T05:15:47;5.00;99.90
19180;DHT22;9722;48.754;8.868;2024-02-21T05:19:08;4.90;99.90
19180;DHT22;9722;48.754;8.868;2024-02-21T05:22:28;4.80;99.90
19180;DHT22;9722;48.754;8.868;2024-02-21T05:25:49;4.70;99.90
19180;DHT22;9722;48.754;8.868;2024-02-21T05:29:09;4.60;99.90
19180;DHT22;9722;48.754;8.868;2024-02-21T05:32:30;4.50;99.90
19180;DHT22;9722;48.754;8.868;2024-02-21T05:35:51;4.50;99.90
19180;DHT22;9722;48.754;8.868;2024-02-21T05:39:12;4.50;99.90
19180;DHT22;9722;48.754;8.868;2024-02-21T05:42:32;4.50;99.90
19180;DHT22;9722;48.754;8.868;2024-02-21T05:45:53;4.40;99.90
19180;DHT22;9722;48.754;8.868;2024-02-21T05:49:13;4.40;99.90
19180;DHT22;9722;48.754;8.868;2024-02-21T05:52:34;4.40;99.90
19180;DHT22;9722;48.754;8.868;2024-02-21T05:55:55;4.40;99.90
19180;DHT22;9722;48.754;8.868;2024-02-21T05:59:15;4.40;99.90
19180;DHT22;9722;48.754;8.868;2024-02-21T06:02:36;4.30;99.90
19180;DHT22;9722;48.754;8.868;2024-02-21T06:05:57;4.30;99.90
19180;DHT22;9722;48.754;8.868;2024-02-21T06:09:18;4.40;99.90
19180;DHT22;9722;48.754;8.868;2024-02-21T06:12:38;4.50;99.90
19180;DHT22;9722;48.754;8.868;2024-02-21T06:15:59;4.50;99.90
19180;DHT22;9722;48.754;8.868;2024-02-21T06:19:19;4.50;99.90
19180;DHT22;9722;48.754;8.868;2024-02-21T06:22:40;4.40;99.90
19180;DHT22;9722;48.754;8.868;2024-02-21T06:26:00;4.30;99.90
19180;DHT22;9722;48.754;8.868;2024-02-21T06:29:21;4.30;99.90
19180;DHT22;9722;48.754;8.868;2024-02-21T06:32:41;4.30;99.90
19180;DHT22;9722;48.754;8.868;2024-02-21T06:36:02;4.30;99.90
19180;DHT22;9722;48.754;8.868;2024-02-21T06:39:22;4.30;99.90
19180;DHT22;9722;48.754;8.868;2024-02-21T06:42:43;4.30;99.90
19180;DHT22;9722;48.754;8.868;2024-02-21T06:46:04;4.30;99.90
19180;DHT22;9722;48.754;8.868;2024-02-21T06:49:24;4.30;99.90
19180;DHT22;9722;48.754;8.868;2024-02-21T06:52:45;4.30;99.90
19180;DHT22;9722;48.754;8.868;2024-02-21T06:56:05;4.40;99.90
19180;DHT22;9722;48.754;8.868;2024-02-21T06:59:26;4.40;99.90
19180;DHT22;9722;48.754;8.868;2024-02-21T07:02:48;4.40;99.90
19180;DHT22;9722;48.754;8.868;2024-02-21T07:06:08;4.40;99.90
19180;DHT22;9722;48.754;8.868;2024-02-21T07:09:29;4.40;99.90
19180;DHT22;9722;48.754;8.868;2024-02-21T07:12:52;4.50;99.90
19180;DHT22;9722;48.754;8.868;2024-02-21T07:16:13;4.60;99.90
19180;DHT22;9722;48.754;8.868;2024-02-21T07:19:33;4.70;99.90
19180;DHT22;9722;48.754;8.868;2024-02-21T07:22:55;4.90;99.90
19180;DHT22;9722;48.754;8.868;2024-02-21T07:26:16;5.20;99.90
19180;DHT22;9722;48.754;8.868;2024-02-21T07:29:36;5.90;99.90
19180;DHT22;9722;48.754;8.868;2024-02-21T07:32:57;6.50;99.90
19180;DHT22;9722;48.754;8.868;2024-02-21T07:36:29;7.20;99.90
19180;DHT22;9722;48.754;8.868;2024-02-21T07:39:52;8.00;99.90
19180;DHT22;9722;48.754;8.868;2024-02-21T07:43:13;8.50;99.80
19180;DHT22;9722;48.754;8.868;2024-02-21T07:46:33;8.70;99.00
19180;DHT22;9722;48.754;8.868;2024-02-21T07:49:54;8.80;98.60
19180;DHT22;9722;48.754;8.868;2024-02-21T07:53:15;8.90;98.10
19180;DHT22;9722;48.754;8.868;2024-02-21T07:56:35;9.10;97.30
19180;DHT22;9722;48.754;8.868;2024-02-21T07:59:56;9.30;96.90
19180;DHT22;9722;48.754;8.868;2024-02-21T08:03:16;9.60;96.30
19180;DHT22;9722;48.754;8.868;2024-02-21T08:06:38;9.70;95.30
19180;DHT22;9722;48.754;8.868;2024-02-21T08:09:58;9.90;94.70
19180;DHT22;9722;48.754;8.868;2024-02-21T08:13:19;10.10;93.30
19180;DHT22;9722;48.754;8.868;2024-02-21T08:16:39;10.30;92.90
19180;DHT22;9722;48.754;8.868;2024-02-21T08:19:59;10.50;91.90
19180;DHT22;9722;48.754;8.868;2024-02-21T08:23:23;10.50;91.10
19180;DHT22;9722;48.754;8.868;2024-02-21T08:26:44;10.50;90.50
19180;DHT22;9722;48.754;8.868;2024-02-21T08:30:08;10.70;90.30
19180;DHT22;9722;48.754;8.868;2024-02-21T08:33:28;10.90;89.70
19180;DHT22;9722;48.754;8.868;2024-02-21T08:36:50;11.20;88.60
19180;DHT22;9722;48.754;8.868;2024-02-21T08:40:11;11.30;86.60
19180;DHT22;9722;48.754;8.868;2024-02-21T08:43:31;11.30;85.00
19180;DHT22;9722;48.754;8.868;2024-02-21T08:46:53;11.30;84.50
19180;DHT22;9722;48.754;8.868;2024-02-21T08:50:13;11.40;84.00
19180;DHT22;9722;48.754;8.868;2024-02-21T08:53:34;11.30;83.20
19180;DHT22;9722;48.754;8.868;2024-02-21T08:56:55;11.30;82.50
19180;DHT22;9722;48.754;8.868;2024-02-21T09:00:16;11.20;81.50
19180;DHT22;9722;48.754;8.868;2024-02-21T09:03:37;11.20;81.20
19180;DHT22;9722;48.754;8.868;2024-02-21T09:06:57;11.20;80.70
19180;DHT22;9722;48.754;8.868;2024-02-21T09:10:18;11.30;80.30
19180;DHT22;9722;48.754;8.868;2024-02-21T09:13:38;11.40;79.20
19180;DHT22;9722;48.754;8.868;2024-02-21T09:16:59;11.50;77.30
19180;DHT22;9722;48.754;8.868;2024-02-21T09:20:19;11.50;75.90
19180;DHT22;9722;48.754;8.868;2024-02-21T09:23:40;11.60;75.50
19180;DHT22;9722;48.754;8.868;2024-02-21T09:27:00;11.70;74.00
19180;DHT22;9722;48.754;8.868;2024-02-21T09:30:21;11.90;73.40
19180;DHT22;9722;48.754;8.868;2024-02-21T09:33:41;12.30;72.40
19180;DHT22;9722;48.754;8.868;2024-02-21T09:37:02;12.80;71.80
19180;DHT22;9722;48.754;8.868;2024-02-21T09:40:22;13.20;68.80
19180;DHT22;9722;48.754;8.868;2024-02-21T09:43:43;13.60;67.30
19180;DHT22;9722;48.754;8.868;2024-02-21T09:47:32;14.10;66.00
19180;DHT22;9722;48.754;8.868;2024-02-21T09:50:55;14.60;64.20
19180;DHT22;9722;48.754;8.868;2024-02-21T09:54:17;15.20;62.80
19180;DHT22;9722;48.754;8.868;2024-02-21T09:57:39;15.60;60.80
19180;DHT22;9722;48.754;8.868;2024-02-21T10:00:59;15.70;58.40
19180;DHT22;9722;48.754;8.868;2024-02-21T10:04:20;15.80;57.90
19180;DHT22;9722;48.754;8.868;2024-02-21T10:07:41;15.90;57.80
19180;DHT22;9722;48.754;8.868;2024-02-21T10:11:02;16.00;57.90
19180;DHT22;9722;48.754;8.868;2024-02-21T10:14:23;15.90;57.20
19180;DHT22;9722;48.754;8.868;2024-02-21T10:17:43;15.80;57.40
19180;DHT22;9722;48.754;8.868;2024-02-21T10:21:05;15.70;56.80
19180;DHT22;9722;48.754;8.868;2024-02-21T10:24:27;15.40;56.40
19180;DHT22;9722;48.754;8.868;2024-02-21T10:27:48;15.30;56.70
19180;DHT22;9722;48.754;8.868;2024-02-21T10:31:24;15.50;56.30
19180;DHT22;9722;48.754;8.868;2024-02-21T10:34:45;15.60;55.60
19180;DHT22;9722;48.754;8.868;2024-02-21T10:38:06;15.60;54.90
19180;DHT22;9722;48.754;8.868;2024-02-21T10:41:26;15.70;55.30
19180;DHT22;9722;48.754;8.868;2024-02-21T10:44:51;15.90;55.00
19180;DHT22;9722;48.754;8.868;2024-02-21T10:48:14;16.00;54.20
19180;DHT22;9722;48.754;8.868;2024-02-21T10:51:37;15.90;53.80
19180;DHT22;9722;48.754;8.868;2024-02-21T10:55:10;15.90;54.70
19180;DHT22;9722;48.754;8.868;2024-02-21T10:58:32;16.00;54.00
19180;DHT22;9722;48.754;8.868;2024-02-21T11:01:53;16.00;53.60
19180;DHT22;9722;48.754;8.868;2024-02-21T11:05:14;16.00;54.00
19180;DHT22;9722;48.754;8.868;2024-02-21T11:08:35;15.90;52.70
19180;DHT22;9722;48.754;8.868;2024-02-21T11:11:56;15.70;52.40
19180;DHT22;9722;48.754;8.868;2024-02-21T11:15:19;15.50;53.10
19180;DHT22;9722;48.754;8.868;2024-02-21T11:18:39;15.60;53.00
19180;DHT22;9722;48.754;8.868;2024-02-21T11:22:00;15.70;53.40
19180;DHT22;9722;48.754;8.868;2024-02-21T11:25:22;15.70;53.10
19180;DHT22;9722;48.754;8.868;2024-02-21T11:28:42;15.70;52.80
19180;DHT22;9722;48.754;8.868;2024-02-21T11:32:04;15.50;51.70
19180;DHT22;9722;48.754;8.868;2024-02-21T11:35:25;15.20;52.00
19180;DHT22;9722;48.754;8.868;2024-02-21T11:38:51;15.00;51.80
19180;DHT22;9722;48.754;8.868;2024-02-21T11:42:13;14.80;52.00
19180;DHT22;9722;48.754;8.868;2024-02-21T11:45:34;14.90;52.00
19180;DHT22;9722;48.754;8.868;2024-02-21T11:48:54;15.00;52.20
19180;DHT22;9722;48.754;8.868;2024-02-21T11:52:15;15.40;52.30
19180;DHT22;9722;48.754;8.868;2024-02-21T11:55:35;15.80;51.70
19180;DHT22;9722;48.754;8.868;2024-02-21T11:58:58;16.10;50.80
19180;DHT22;9722;48.754;8.868;2024-02-21T12:02:19;16.40;50.60
19180;DHT22;9722;48.754;8.868;2024-02-21T12:05:41;16.70;50.30
19180;DHT22;9722;48.754;8.868;2024-02-21T12:09:02;17.10;49.50
19180;DHT22;9722;48.754;8.868;2024-02-21T12:12:22;17.20;49.00
19180;DHT22;9722;48.754;8.868;2024-02-21T12:15:47;17.40;48.70
19180;DHT22;9722;48.754;8.868;2024-02-21T12:19:09;17.50;48.20
19180;DHT22;9722;48.754;8.868;2024-02-21T12:22:29;17.60;48.60
19180;DHT22;9722;48.754;8.868;2024-02-21T12:25:52;17.70;47.70
19180;DHT22;9722;48.754;8.868;2024-02-21T12:29:15;17.50;46.60
19180;DHT22;9722;48.754;8.868;2024-02-21T12:32:36;17.30;46.90
19180;DHT22;9722;48.754;8.868;2024-02-21T12:35:57;17.20;47.20
19180;DHT22;9722;48.754;8.868;2024-02-21T12:39:17;17.10;46.90
19180;DHT22;9722;48.754;8.868;2024-02-21T12:42:38;17.00;46.90
19180;DHT22;9722;48.754;8.868;2024-02-21T12:45:58;16.80;45.90
19180;DHT22;9722;48.754;8.868;2024-02-21T12:49:19;16.60;45.20
19180;DHT22;9722;48.754;8.868;2024-02-21T12:52:39;16.40;45.20
19180;DHT22;9722;48.754;8.868;2024-02-21T12:56:00;16.20;45.10
19180;DHT22;9722;48.754;8.868;2024-02-21T12:59:21;16.10;44.00
19180;DHT22;9722;48.754;8.868;2024-02-21T13:02:41;15.90;43.90
19180;DHT22;9722;48.754;8.868;2024-02-21T13:06:03;15.70;44.30
19180;DHT22;9722;48.754;8.868;2024-02-21T13:09:24;15.60;44.70
19180;DHT22;9722;48.754;8.868;2024-02-21T13:12:44;15.60;44.60
19180;DHT22;9722;48.754;8.868;2024-02-21T13:16:05;15.60;44.40
19180;DHT22;9722;48.754;8.868;2024-02-21T13:19:25;15.40;44.60
19180;DHT22;9722;48.754;8.868;2024-02-21T13:22:46;15.40;45.10
19180;DHT22;9722;48.754;8.868;2024-02-21T13:26:07;15.50;45.00
19180;DHT22;9722;48.754;8.868;2024-02-21T13:29:27;15.40;44.80
19180;DHT22;9722;48.754;8.868;2024-02-21T13:32:48;15.40;45.00
19180;DHT22;9722;48.754;8.868;2024-02-21T13:36:09;15.30;44.90
19180;DHT22;9722;48.754;8.868;2024-02-21T13:39:30;15.20;44.90
19180;DHT22;9722;48.754;8.868;2024-02-21T13:42:55;15.10;44.30
19180;DHT22;9722;48.754;8.868;2024-02-21T13:46:15;15.00;44.20
19180;DHT22;9722;48.754;8.868;2024-02-21T13:49:36;15.00;43.70
19180;DHT22;9722;48.754;8.868;2024-02-21T13:52:56;14.90;43.40
19180;DHT22;9722;48.754;8.868;2024-02-21T13:56:17;14.70;43.20
19180;DHT22;9722;48.754;8.868;2024-02-21T13:59:37;14.60;42.80
19180;DHT22;9722;48.754;8.868;2024-02-21T14:03:00;14.50;41.80
19180;DHT22;9722;48.754;8.868;2024-02-21T14:06:21;14.40;42.30
19180;DHT22;9722;48.754;8.868;2024-02-21T14:09:41;14.40;42.60
19180;DHT22;9722;48.754;8.868;2024-02-21T14:13:02;14.30;42.70
19180;DHT22;9722;48.754;8.868;2024-02-21T14:16:23;14.30;42.90
19180;DHT22;9722;48.754;8.868;2024-02-21T14:19:43;14.30;43.20
19180;DHT22;9722;48.754;8.868;2024-02-21T14:23:04;14.30;43.00
19180;DHT22;9722;48.754;8.868;2024-02-21T14:26:25;14.30;43.40
19180;DHT22;9722;48.754;8.868;2024-02-21T14:29:45;14.30;43.60
19180;DHT22;9722;48.754;8.868;2024-02-21T14:33:06;14.20;43.50
19180;DHT22;9722;48.754;8.868;2024-02-21T14:36:28;14.20;43.60
19180;DHT22;9722;48.754;8.868;2024-02-21T14:39:48;14.10;43.60
19180;DHT22;9722;48.754;8.868;2024-02-21T14:43:09;14.10;43.80
19180;DHT22;9722;48.754;8.868;2024-02-21T14:46:29;14.00;43.60
19180;DHT22;9722;48.754;8.868;2024-02-21T14:49:50;13.90;43.60
19180;DHT22;9722;48.754;8.868;2024-02-21T14:53:10;13.80;43.50
19180;DHT22;9722;48.754;8.868;2024-02-21T14:56:31;13.70;43.70
19180;DHT22;9722;48.754;8.868;2024-02-21T14:59:51;13.70;44.10
19180;DHT22;9722;48.754;8.868;2024-02-21T15:03:16;13.70;44.40
19180;DHT22;9722;48.754;8.868;2024-02-21T15:06:39;13.70;44.40
19180;DHT22;9722;48.754;8.868;2024-02-21T15:10:00;13.70;44.40
19180;DHT22;9722;48.754;8.868;2024-02-21T15:13:21;13.70;44.40
19180;DHT22;9722;48.754;8.868;2024-02-21T15:16:42;13.70;44.40
19180;DHT22;9722;48.754;8.868;2024-02-21T15:20:03;13.70;44.40
19180;DHT22;9722;48.754;8.868;2024-02-21T15:23:27;13.80;44.50
19180;DHT22;9722;48.754;8.868;2024-02-21T15:26:48;13.70;44.20
19180;DHT22;9722;48.754;8.868;2024-02-21T15:30:10;13.60;44.10
19180;DHT22;9722;48.754;8.868;2024-02-21T15:33:30;13.50;44.20
19180;DHT22;9722;48.754;8.868;2024-02-21T15:36:51;13.40;44.20
19180;DHT22;9722;48.754;8.868;2024-02-21T15:40:12;13.30;44.50
19180;DHT22;9722;48.754;8.868;2024-02-21T15:43:32;13.20;44.60
19180;DHT22;9722;48.754;8.868;2024-02-21T15:46:53;13.10;44.10
19180;DHT22;9722;48.754;8.868;2024-02-21T15:50:14;13.00;44.20
19180;DHT22;9722;48.754;8.868;2024-02-21T15:53:34;12.90;43.50
19180;DHT22;9722;48.754;8.868;2024-02-21T15:56:55;12.80;43.50
19180;DHT22;9722;48.754;8.868;2024-02-21T16:00:16;12.80;43.70
19180;DHT22;9722;48.754;8.868;2024-02-21T16:03:38;12.70;43.60
19180;DHT22;9722;48.754;8.868;2024-02-21T16:07:00;12.70;43.80
19180;DHT22;9722;48.754;8.868;2024-02-21T16:10:21;12.60;43.50
19180;DHT22;9722;48.754;8.868;2024-02-21T16:13:44;12.50;43.70
19180;DHT22;9722;48.754;8.868;2024-02-21T16:17:06;12.40;44.00
19180;DHT22;9722;48.754;8.868;2024-02-21T16:20:27;12.30;44.40
19180;DHT22;9722;48.754;8.868;2024-02-21T16:23:47;12.20;44.90
19180;DHT22;9722;48.754;8.868;2024-02-21T16:27:09;12.20;45.80
19180;DHT22;9722;48.754;8.868;2024-02-21T16:30:29;12.10;46.60
19180;DHT22;9722;48.754;8.868;2024-02-21T16:33:50;12.00;47.30
19180;DHT22;9722;48.754;8.868;2024-02-21T16:37:11;11.90;47.90
19180;DHT22;9722;48.754;8.868;2024-02-21T16:40:33;11.90;48.50
19180;DHT22;9722;48.754;8.868;2024-02-21T16:43:53;11.80;49.20
19180;DHT22;9722;48.754;8.868;2024-02-21T16:47:14;11.80;49.50
19180;DHT22;9722;48.754;8.868;2024-02-21T16:50:34;11.70;50.30
19180;DHT22;9722;48.754;8.868;2024-02-21T16:53:55;11.60;50.90
19180;DHT22;9722;48.754;8.868;2024-02-21T16:57:16;11.50;51.20
19180;DHT22;9722;48.754;8.868;2024-02-21T17:00:36;11.50;51.90
19180;DHT22;9722;48.754;8.868;2024-02-21T17:03:59;11.40;52.60
19180;DHT22;9722;48.754;8.868;2024-02-21T17:07:20;11.40;53.60
19180;DHT22;9722;48.754;8.868;2024-02-21T17:10:41;11.30;54.20
19180;DHT22;9722;48.754;8.868;2024-02-21T17:14:02;11.20;55.40
19180;DHT22;9722;48.754;8.868;2024-02-21T17:17:23;11.20;56.20
19180;DHT22;9722;48.754;8.868;2024-02-21T17:20:44;11.20;57.20
19180;DHT22;9722;48.754;8.868;2024-02-21T17:24:05;11.10;58.30
19180;DHT22;9722;48.754;8.868;2024-02-21T17:27:26;11.10;59.80
19180;DHT22;9722;48.754;8.868;2024-02-21T17:30:46;11.10;60.40
19180;DHT22;9722;48.754;8.868;2024-02-21T17:34:08;11.00;61.10
19180;DHT22;9722;48.754;8.868;2024-02-21T17:37:28;11.00;61.50
19180;DHT22;9722;48.754;8.868;2024-02-21T17:40:49;10.90;62.20
19180;DHT22;9722;48.754;8.868;2024-02-21T17:44:10;10.90;63.20
19180;DHT22;9722;48.754;8.868;2024-02-21T17:47:31;10.90;64.10
19180;DHT22;9722;48.754;8.868;2024-02-21T17:50:51;10.90;64.60
19180;DHT22;9722;48.754;8.868;2024-02-21T17:54:12;10.80;65.10
19180;DHT22;9722;48.754;8.868;2024-02-21T17:57:34;10.80;65.40
19180;DHT22;9722;48.754;8.868;2024-02-21T18:00:55;10.80;65.80
19180;DHT22;9722;48.754;8.868;2024-02-21T18:04:19;10.80;66.10
19180;DHT22;9722;48.754;8.868;2024-02-21T18:07:40;10.70;66.20
19180;DHT22;9722;48.754;8.868;2024-02-21T18:11:01;10.70;66.30
19180;DHT22;9722;48.754;8.868;2024-02-21T18:14:22;10.70;66.60
19180;DHT22;9722;48.754;8.868;2024-02-21T18:17:42;10.70;66.70
19180;DHT22;9722;48.754;8.868;2024-02-21T18:21:03;10.60;66.60
19180;DHT22;9722;48.754;8.868;2024-02-21T18:24:23;10.60;66.70
19180;DHT22;9722;48.754;8.868;2024-02-21T18:27:44;10.60;66.60
19180;DHT22;9722;48.754;8.868;2024-02-21T18:31:04;10.60;66.50
19180;DHT22;9722;48.754;8.868;2024-02-21T18:34:26;10.60;66.60
19180;DHT22;9722;48.754;8.868;2024-02-21T18:37:47;10.50;66.50
19180;DHT22;9722;48.754;8.868;2024-02-21T18:41:09;10.50;66.30
19180;DHT22;9722;48.754;8.868;2024-02-21T18:44:29;10.50;65.40
19180;DHT22;9722;48.754;8.868;2024-02-21T18:47:50;10.50;64.20
19180;DHT22;9722;48.754;8.868;2024-02-21T18:51:16;10.60;63.10
19180;DHT22;9722;48.754;8.868;2024-02-21T18:54:40;10.60;62.30
19180;DHT22;9722;48.754;8.868;2024-02-21T18:58:02;10.60;61.60
19180;DHT22;9722;48.754;8.868;2024-02-21T19:01:23;10.70;60.90
19180;DHT22;9722;48.754;8.868;2024-02-21T19:04:43;10.70;60.50
19180;DHT22;9722;48.754;8.868;2024-02-21T19:08:04;10.70;60.50
19180;DHT22;9722;48.754;8.868;2024-02-21T19:11:25;10.70;60.60
19180;DHT22;9722;48.754;8.868;2024-02-21T19:14:45;10.70;60.60
19180;DHT22;9722;48.754;8.868;2024-02-21T19:18:06;10.70;60.70
19180;DHT22;9722;48.754;8.868;2024-02-21T19:21:27;10.70;61.00
19180;DHT22;9722;48.754;8.868;2024-02-21T19:24:47;10.60;61.40
19180;DHT22;9722;48.754;8.868;2024-02-21T19:28:11;10.60;61.80
19180;DHT22;9722;48.754;8.868;2024-02-21T19:31:31;10.60;61.80
19180;DHT22;9722;48.754;8.868;2024-02-21T19:34:52;10.60;61.90
19180;DHT22;9722;48.754;8.868;2024-02-21T19:38:12;10.60;62.00
19180;DHT22;9722;48.754;8.868;2024-02-21T19:41:33;10.60;61.70
19180;DHT22;9722;48.754;8.868;2024-02-21T19:44:53;10.60;61.00
19180;DHT22;9722;48.754;8.868;2024-02-21T19:48:14;10.60;60.70
19180;DHT22;9722;48.754;8.868;2024-02-21T19:51:36;10.60;60.80
19180;DHT22;9722;48.754;8.868;2024-02-21T19:54:56;10.60;61.30
19180;DHT22;9722;48.754;8.868;2024-02-21T19:58:17;10.60;61.70
19180;DHT22;9722;48.754;8.868;2024-02-21T20:01:38;10.60;62.20
19180;DHT22;9722;48.754;8.868;2024-02-21T20:05:02;10.60;62.50
19180;DHT22;9722;48.754;8.868;2024-02-21T20:08:23;10.50;62.70
19180;DHT22;9722;48.754;8.868;2024-02-21T20:11:44;10.50;63.00
19180;DHT22;9722;48.754;8.868;2024-02-21T20:15:05;10.50;63.40
19180;DHT22;9722;48.754;8.868;2024-02-21T20:18:26;10.50;63.20
19180;DHT22;9722;48.754;8.868;2024-02-21T20:21:46;10.50;59.90
19180;DHT22;9722;48.754;8.868;2024-02-21T20:25:09;10.70;59.00
19180;DHT22;9722;48.754;8.868;2024-02-21T20:28:30;10.80;58.20
19180;DHT22;9722;48.754;8.868;2024-02-21T20:31:51;11.00;57.30
19180;DHT22;9722;48.754;8.868;2024-02-21T20:35:12;11.10;56.90
19180;DHT22;9722;48.754;8.868;2024-02-21T20:38:32;11.20;56.70
19180;DHT22;9722;48.754;8.868;2024-02-21T20:41:53;11.40;56.40
19180;DHT22;9722;48.754;8.868;2024-02-21T20:45:13;11.60;56.70
19180;DHT22;9722;48.754;8.868;2024-02-21T20:48:34;11.50;56.50
19180;DHT22;9722;48.754;8.868;2024-02-21T20:51:54;11.60;56.80
19180;DHT22;9722;48.754;8.868;2024-02-21T20:55:15;11.50;56.70
19180;DHT22;9722;48.754;8.868;2024-02-21T20:58:36;11.60;56.90
19180;DHT22;9722;48.754;8.868;2024-02-21T21:01:57;11.60;56.90
19180;DHT22;9722;48.754;8.868;2024-02-21T21:05:17;11.70;56.80
19180;DHT22;9722;48.754;8.868;2024-02-21T21:08:38;11.70;57.10
19180;DHT22;9722;48.754;8.868;2024-02-21T21:11:59;11.80;57.50
19180;DHT22;9722;48.754;8.868;2024-02-21T21:15:20;11.80;58.50
19180;DHT22;9722;48.754;8.868;2024-02-21T21:18:40;11.70;58.40
19180;DHT22;9722;48.754;8.868;2024-02-21T21:22:01;11.70;58.50
19180;DHT22;9722;48.754;8.868;2024-02-21T21:25:21;11.70;58.60
19180;DHT22;9722;48.754;8.868;2024-02-21T21:28:42;11.60;58.70
19180;DHT22;9722;48.754;8.868;2024-02-21T21:32:03;11.60;58.60
19180;DHT22;9722;48.754;8.868;2024-02-21T21:35:24;11.60;58.70
19180;DHT22;9722;48.754;8.868;2024-02-21T21:38:46;11.60;58.30